Time;durP1;ratioP1;P1;durP2;ratioP2;P2;SDS_P1;SDS_P2;PMS_P1;PMS_P2;Temp;Humidity;BMP_temperature;BMP_pressure;BME280_temperature;BME280_humidity;BME280_pressure;Samples;Min_cycle;Max_cycle;Signal;HPM_P1;HPM_P2
2023/11/06 00:01:51;;;;;;;0.10;0.10;;;10.00;99.90;;;;;;5052994;28;20703;-74
2023/11/06 00:04:16;;;;;;;0.10;0.10;;;10.00;99.90;;;;;;5049882;28;20040;-74
2023/11/06 00:06:42;;;;;;;1.58;1.50;;;9.90;99.90;;;;;;5053795;28;20028;-74
2023/11/06 00:09:08;;;;;;;0.65;0.65;;;9.80;99.90;;;;;;5053169;28;20571;-75
2023/11/06 00:11:34;;;;;;;0.10;0.10;;;9.80;99.90;;;;;;5054158;28;20040;-75
2023/11/06 00:13:59;;;;;;;0.08;0.08;;;9.80;99.90;;;;;;5052961;28;20589;-75
2023/11/06 00:16:26;;;;;;;0.10;0.10;;;9.70;99.90;;;;;;5051479;28;20021;-75
2023/11/06 00:18:51;;;;;;;0.03;0.03;;;9.70;99.90;;;;;;5054222;28;20036;-75
2023/11/06 00:21:21;;;;;;;0.10;0.10;;;9.70;99.90;;;;;;5054202;28;20479;-75
2023/11/06 00:23:47;;;;;;;0.00;0.00;;;9.60;99.90;;;;;;5057685;28;20092;-75
2023/11/06 00:26:14;;;;;;;0.07;0.07;;;9.70;99.90;;;;;;5052646;28;20025;-74
2023/11/06 00:28:41;;;;;;;0.60;0.60;;;9.60;99.90;;;;;;5049684;28;20036;-75
2023/11/06 00:31:06;;;;;;;0.10;0.10;;;9.70;99.90;;;;;;5051054;28;20037;-75
2023/11/06 00:33:32;;;;;;;0.00;0.00;;;9.70;99.90;;;;;;5058503;28;20013;-74
2023/11/06 00:35:57;;;;;;;0.17;0.17;;;9.60;99.90;;;;;;5055739;28;20079;-74
2023/11/06 00:38:23;;;;;;;0.10;0.10;;;9.60;99.90;;;;;;5054519;28;20032;-74
2023/11/06 00:40:50;;;;;;;0.10;0.10;;;9.50;99.90;;;;;;5040680;28;20114;-75
2023/11/06 00:43:16;;;;;;;0.10;0.10;;;9.40;99.90;;;;;;5057090;28;20063;-75
2023/11/06 00:45:42;;;;;;;0.10;0.10;;;9.50;99.90;;;;;;5057005;28;20029;-74
2023/11/06 00:48:07;;;;;;;0.10;0.10;;;9.60;99.90;;;;;;5057940;28;20025;-74
2023/11/06 00:50:33;;;;;;;0.10;0.10;;;9.70;99.90;;;;;;5052679;28;20034;-74
2023/11/06 00:52:59;;;;;;;0.10;0.10;;;9.70;99.90;;;;;;5051314;28;20029;-74
2023/11/06 00:55:27;;;;;;;0.10;0.10;;;9.70;99.90;;;;;;5053385;28;20947;-73
2023/11/06 00:57:53;;;;;;;0.10;0.10;;;9.80;99.90;;;;;;5052994;28;20099;-73
2023/11/06 01:00:22;;;;;;;0.00;0.00;;;9.80;99.90;;;;;;5052940;28;20025;-74
2023/11/06 01:02:51;;;;;;;0.10;0.10;;;9.90;99.90;;;;;;5041859;28;20202;-74
2023/11/06 01:05:16;;;;;;;0.10;0.10;;;9.90;99.90;;;;;;5045022;28;20471;-74
2023/11/06 01:07:42;;;;;;;0.10;0.10;;;9.90;99.90;;;;;;5048148;28;20036;-74
2023/11/06 01:10:08;;;;;;;0.00;0.00;;;9.90;99.90;;;;;;5048516;28;20020;-73
2023/11/06 01:12:34;;;;;;;0.10;0.10;;;9.90;99.90;;;;;;5047897;28;20040;-74
2023/11/06 01:15:01;;;;;;;0.10;0.10;;;9.90;99.90;;;;;;5048424;28;20416;-73
2023/11/06 01:17:27;;;;;;;0.10;0.10;;;9.90;99.90;;;;;;5048249;28;20017;-73
2023/11/06 01:19:53;;;;;;;0.10;0.10;;;9.80;99.90;;;;;;5048721;28;20036;-74
2023/11/06 01:22:19;;;;;;;0.00;0.00;;;9.90;99.90;;;;;;5048013;28;20040;-74
2023/11/06 01:24:45;;;;;;;0.05;0.05;;;9.80;99.90;;;;;;5049504;28;20102;-74
2023/11/06 01:27:11;;;;;;;0.10;0.10;;;9.80;99.90;;;;;;5047405;28;20544;-74
2023/11/06 01:29:36;;;;;;;0.10;0.10;;;9.80;99.90;;;;;;5048985;28;20037;-74
2023/11/06 01:32:05;;;;;;;0.10;0.10;;;9.80;99.90;;;;;;5047952;28;20039;-74
2023/11/06 01:34:31;;;;;;;0.00;0.00;;;9.80;99.90;;;;;;5040985;28;20495;-74
2023/11/06 01:36:57;;;;;;;0.00;0.00;;;9.70;99.90;;;;;;5048655;28;20343;-75
2023/11/06 01:39:23;;;;;;;0.10;0.10;;;9.60;99.90;;;;;;5048997;28;20028;-74
2023/11/06 01:41:49;;;;;;;0.10;0.10;;;9.70;99.90;;;;;;5052588;28;20066;-74
2023/11/06 01:44:15;;;;;;;0.10;0.10;;;9.70;99.90;;;;;;5050987;28;20879;-74
2023/11/06 01:46:41;;;;;;;0.10;0.10;;;9.60;99.90;;;;;;5055457;28;20037;-74
2023/11/06 01:49:07;;;;;;;0.10;0.10;;;9.60;99.90;;;;;;5052604;28;20313;-74
2023/11/06 01:51:35;;;;;;;0.10;0.10;;;9.60;99.90;;;;;;5056172;28;20028;-74
2023/11/06 01:54:02;;;;;;;0.10;0.10;;;9.60;99.90;;;;;;5044470;28;20053;-74
2023/11/06 01:56:28;;;;;;;;;;;9.50;99.90;;;;;;5054220;28;20032;-74
2023/11/06 01:58:54;;;;;;;0.10;0.10;;;9.50;99.90;;;;;;5054929;28;19912;-74
2023/11/06 02:01:19;;;;;;;0.10;0.10;;;9.60;99.90;;;;;;5051116;28;21003;-74
2023/11/06 02:03:45;;;;;;;0.00;0.00;;;9.60;99.90;;;;;;5050189;28;20498;-74
2023/11/06 02:06:11;;;;;;;0.10;0.10;;;9.60;99.90;;;;;;5050938;28;20082;-74
2023/11/06 02:08:37;;;;;;;0.00;0.00;;;9.60;99.90;;;;;;5043913;28;20033;-74
2023/11/06 02:11:03;;;;;;;0.03;0.03;;;9.60;99.90;;;;;;5048897;28;20036;-74
2023/11/06 02:13:29;;;;;;;0.10;0.10;;;9.60;99.90;;;;;;5049033;28;20029;-74
2023/11/06 02:15:55;;;;;;;0.10;0.10;;;9.60;99.90;;;;;;5047883;28;20025;-74
2023/11/06 02:18:23;;;;;;;0.10;0.10;;;9.70;99.90;;;;;;5040244;28;20085;-74
2023/11/06 02:20:54;;;;;;;0.10;0.10;;;9.70;99.90;;;;;;5046428;28;20029;-74
2023/11/06 02:23:24;;;;;;;0.10;0.10;;;9.60;99.90;;;;;;5051097;28;20056;-74
2023/11/06 02:25:49;;;;;;;0.05;0.05;;;9.60;99.90;;;;;;5051858;28;20029;-74
2023/11/06 02:28:15;;;;;;;0.00;0.00;;;9.50;99.90;;;;;;5052132;28;20044;-75
2023/11/06 02:30:40;;;;;;;0.08;0.08;;;9.50;99.90;;;;;;5049675;28;20056;-74
2023/11/06 02:33:06;;;;;;;0.10;0.10;;;9.30;99.90;;;;;;5052473;28;20036;-74
2023/11/06 02:35:32;;;;;;;0.10;0.10;;;9.40;99.90;;;;;;5051124;28;20043;-75
2023/11/06 02:37:57;;;;;;;0.03;0.03;;;9.40;99.90;;;;;;5048390;28;20025;-75
2023/11/06 02:40:23;;;;;;;0.10;0.10;;;9.40;99.90;;;;;;5051439;28;20017;-74
2023/11/06 02:42:49;;;;;;;0.10;0.10;;;9.50;99.90;;;;;;5048698;28;20064;-75
2023/11/06 02:45:15;;;;;;;0.10;0.10;;;9.50;99.90;;;;;;5053862;28;20044;-74
2023/11/06 02:47:40;;;;;;;0.10;0.10;;;9.50;99.90;;;;;;5049267;28;20033;-74
2023/11/06 02:50:07;;;;;;;0.10;0.10;;;9.40;99.90;;;;;;5053381;28;20040;-74
2023/11/06 02:52:33;;;;;;;;;;;9.40;99.90;;;;;;5050646;28;20029;-74
2023/11/06 02:54:59;;;;;;;0.10;0.10;;;9.40;99.90;;;;;;5049259;28;19908;-74
2023/11/06 02:57:25;;;;;;;0.10;0.10;;;9.50;99.90;;;;;;5046658;28;20091;-74
2023/11/06 02:59:50;;;;;;;0.10;0.10;;;9.40;99.90;;;;;;5048731;28;20119;-73
2023/11/06 03:02:16;;;;;;;0.10;0.10;;;9.30;99.90;;;;;;5047876;28;20044;-74
2023/11/06 03:04:44;;;;;;;0.10;0.10;;;9.20;99.90;;;;;;5048687;28;20033;-74
2023/11/06 03:07:10;;;;;;;0.10;0.10;;;9.20;99.90;;;;;;5048889;28;20036;-74
2023/11/06 03:09:35;;;;;;;0.10;0.10;;;9.20;99.90;;;;;;5046412;28;20032;-74
2023/11/06 03:12:02;;;;;;;0.10;0.10;;;9.30;99.90;;;;;;5044299;28;20107;-73
2023/11/06 03:14:28;;;;;;;0.10;0.10;;;9.40;99.90;;;;;;5042605;28;20051;-73
2023/11/06 03:16:53;;;;;;;0.00;0.00;;;9.40;99.90;;;;;;5049979;28;20558;-74
2023/11/06 03:19:19;;;;;;;0.00;0.00;;;9.50;99.90;;;;;;5050667;28;20033;-74
2023/11/06 03:21:45;;;;;;;0.08;0.08;;;9.40;99.90;;;;;;5053066;28;20033;-74
2023/11/06 03:24:10;;;;;;;0.00;0.00;;;9.30;99.90;;;;;;5053809;28;20025;-74
2023/11/06 03:26:36;;;;;;;0.10;0.10;;;9.40;99.90;;;;;;5049530;28;20112;-74
2023/11/06 03:29:02;;;;;;;0.10;0.10;;;9.40;99.90;;;;;;5053549;28;20033;-74
2023/11/06 03:31:28;;;;;;;0.10;0.10;;;9.40;99.90;;;;;;5051498;28;20728;-74
2023/11/06 03:33:54;;;;;;;0.10;0.10;;;9.20;99.90;;;;;;5053660;28;20298;-74
2023/11/06 03:36:19;;;;;;;0.00;0.00;;;9.10;99.90;;;;;;5052798;28;20021;-73
2023/11/06 03:38:46;;;;;;;0.10;0.10;;;9.10;99.90;;;;;;5053803;28;20036;-74
2023/11/06 03:41:12;;;;;;;0.10;0.10;;;9.20;99.90;;;;;;5065096;28;20578;-74
2023/11/06 03:43:37;;;;;;;0.10;0.10;;;9.30;99.90;;;;;;5054675;28;20025;-74
2023/11/06 03:46:03;;;;;;;0.10;0.10;;;9.30;99.90;;;;;;5061947;28;20277;-73
2023/11/06 03:48:29;;;;;;;0.03;0.03;;;9.20;99.90;;;;;;5061584;28;20064;-74
2023/11/06 03:50:55;;;;;;;0.10;0.10;;;9.10;99.90;;;;;;5068423;28;20090;-73
2023/11/06 03:53:21;;;;;;;0.10;0.10;;;9.20;99.90;;;;;;5065831;28;20052;-74
2023/11/06 03:55:47;;;;;;;0.10;0.10;;;9.20;99.90;;;;;;5056022;28;20024;-74
2023/11/06 03:58:13;;;;;;;0.10;0.10;;;9.30;99.90;;;;;;5063478;28;20092;-74
2023/11/06 04:00:38;;;;;;;0.10;0.10;;;9.20;99.90;;;;;;5052495;28;20078;-74
2023/11/06 04:03:04;;;;;;;0.10;0.10;;;9.30;99.90;;;;;;5053919;28;20028;-74
2023/11/06 04:05:30;;;;;;;0.00;0.00;;;9.30;99.90;;;;;;5051055;28;20123;-74
2023/11/06 04:07:55;;;;;;;0.10;0.10;;;9.20;99.90;;;;;;5053019;28;20424;-74
2023/11/06 04:10:21;;;;;;;0.00;0.00;;;9.10;99.90;;;;;;5050489;28;20051;-74
2023/11/06 04:12:47;;;;;;;0.10;0.10;;;9.10;99.90;;;;;;5054365;28;20033;-74
2023/11/06 04:15:12;;;;;;;0.10;0.10;;;9.10;99.90;;;;;;5052922;28;20021;-74
2023/11/06 04:17:38;;;;;;;0.10;0.10;;;9.20;99.90;;;;;;5050452;28;20047;-74
2023/11/06 04:20:06;;;;;;;0.10;0.10;;;9.20;99.90;;;;;;5053016;28;20024;-74
2023/11/06 04:22:32;;;;;;;0.00;0.00;;;9.30;99.90;;;;;;5053645;28;20436;-74
2023/11/06 04:24:57;;;;;;;0.10;0.10;;;9.20;99.90;;;;;;5050999;28;20039;-74
2023/11/06 04:27:23;;;;;;;0.00;0.00;;;9.20;99.90;;;;;;5048469;28;20021;-73
2023/11/06 04:29:50;;;;;;;0.10;0.10;;;9.20;99.90;;;;;;5053532;28;20029;-72
2023/11/06 04:32:15;;;;;;;0.10;0.10;;;9.20;99.90;;;;;;5051107;28;20025;-73
2023/11/06 04:34:41;;;;;;;0.10;0.10;;;9.20;99.90;;;;;;5053453;28;20039;-74
2023/11/06 04:37:12;;;;;;;0.10;0.10;;;9.20;99.90;;;;;;5050306;28;20025;-73
2023/11/06 04:39:42;;;;;;;0.10;0.10;;;9.10;99.90;;;;;;5047587;28;20494;-74
2023/11/06 04:42:09;;;;;;;0.10;0.10;;;9.10;99.90;;;;;;5046143;28;20057;-73
2023/11/06 04:44:36;;;;;;;0.10;0.10;;;9.10;99.90;;;;;;5045826;28;20033;-73
2023/11/06 04:47:01;;;;;;;0.00;0.00;;;9.20;99.90;;;;;;5057093;28;20057;-73
2023/11/06 04:49:27;;;;;;;0.00;0.00;;;9.30;99.90;;;;;;5049090;28;20119;-73
2023/11/06 04:51:53;;;;;;;0.10;0.10;;;9.30;99.90;;;;;;5062643;28;20036;-73
2023/11/06 04:54:18;;;;;;;0.10;0.10;;;9.30;99.90;;;;;;5063465;28;20044;-73
2023/11/06 04:56:46;;;;;;;0.10;0.10;;;9.40;99.90;;;;;;5055858;28;20697;-73
2023/11/06 04:59:12;;;;;;;0.00;0.00;;;9.30;99.90;;;;;;5047315;28;20025;-75
2023/11/06 05:01:39;;;;;;;0.10;0.10;;;9.40;99.90;;;;;;5048243;28;20124;-75
2023/11/06 05:04:05;;;;;;;0.00;0.00;;;9.30;99.90;;;;;;5053736;28;20052;-75
2023/11/06 05:06:30;;;;;;;0.10;0.10;;;9.40;99.90;;;;;;5048920;28;20064;-74
2023/11/06 05:08:56;;;;;;;0.10;0.10;;;9.40;99.90;;;;;;5054624;28;20036;-74
2023/11/06 05:11:22;;;;;;;0.00;0.00;;;9.30;99.90;;;;;;5045910;28;20029;-74
2023/11/06 05:13:51;;;;;;;3.13;2.92;;;9.30;99.90;;;;;;5050544;28;20021;-74
2023/11/06 05:16:17;;;;;;;0.10;0.10;;;9.20;99.90;;;;;;5048933;28;20048;-74
2023/11/06 05:18:43;;;;;;;0.10;0.10;;;9.10;99.90;;;;;;5046004;28;20079;-75
2023/11/06 05:21:09;;;;;;;0.10;0.10;;;9.30;99.90;;;;;;5048996;28;20028;-75
2023/11/06 05:23:34;;;;;;;0.00;0.00;;;9.30;99.90;;;;;;5047645;28;20051;-74
2023/11/06 05:26:00;;;;;;;0.10;0.10;;;9.30;99.90;;;;;;5047974;28;20056;-75
2023/11/06 05:28:26;;;;;;;0.00;0.00;;;9.30;99.90;;;;;;5048179;28;20029;-75
2023/11/06 05:30:52;;;;;;;0.08;0.08;;;9.30;99.90;;;;;;5047414;28;20044;-74
2023/11/06 05:33:17;;;;;;;0.00;0.00;;;9.20;99.90;;;;;;5048114;28;20082;-74
2023/11/06 05:35:43;;;;;;;0.03;0.03;;;9.30;99.90;;;;;;5047818;28;20037;-74
2023/11/06 05:38:08;;;;;;;0.10;0.10;;;9.30;99.90;;;;;;5046358;28;20400;-75
2023/11/06 05:40:34;;;;;;;0.10;0.10;;;9.30;99.90;;;;;;5045420;28;20040;-74
2023/11/06 05:43:00;;;;;;;0.10;0.10;;;9.40;99.90;;;;;;5041693;28;20040;-74
2023/11/06 05:45:25;;;;;;;0.10;0.10;;;9.30;99.90;;;;;;5039864;28;20024;-74
2023/11/06 05:47:51;;;;;;;0.10;0.10;;;9.20;99.90;;;;;;5047204;28;20041;-75
2023/11/06 05:50:16;;;;;;;0.10;0.10;;;9.30;99.90;;;;;;5043325;28;20021;-74
2023/11/06 05:52:42;;;;;;;0.08;0.08;;;9.30;99.90;;;;;;5047525;28;20449;-75
2023/11/06 05:55:08;;;;;;;0.63;0.55;;;9.30;99.90;;;;;;5047803;28;20017;-75
2023/11/06 05:57:35;;;;;;;0.10;0.10;;;9.40;99.90;;;;;;5048428;28;20056;-74
2023/11/06 06:00:01;;;;;;;0.10;0.10;;;9.40;99.90;;;;;;5046068;28;20024;-74
2023/11/06 06:02:27;;;;;;;0.10;0.10;;;9.30;99.90;;;;;;5047084;28;20033;-75
2023/11/06 06:04:54;;;;;;;0.10;0.10;;;9.20;99.90;;;;;;5047163;28;20565;-75
2023/11/06 06:07:19;;;;;;;0.10;0.10;;;9.20;99.90;;;;;;5036603;28;20032;-75
2023/11/06 06:09:45;;;;;;;0.85;0.85;;;9.10;99.90;;;;;;5046780;28;20559;-74
2023/11/06 06:12:11;;;;;;;0.10;0.10;;;9.10;99.90;;;;;;5046730;28;20025;-74
2023/11/06 06:14:37;;;;;;;0.13;0.13;;;9.00;99.90;;;;;;5046344;28;20060;-75
2023/11/06 06:17:03;;;;;;;0.10;0.10;;;9.00;99.90;;;;;;5043172;28;20067;-74
2023/11/06 06:19:31;;;;;;;0.10;0.10;;;9.20;99.90;;;;;;5047992;28;20025;-74
2023/11/06 06:21:57;;;;;;;0.10;0.10;;;9.20;99.90;;;;;;5046317;28;20036;-74
2023/11/06 06:24:23;;;;;;;2.33;2.10;;;9.20;99.90;;;;;;5048216;28;20089;-74
2023/11/06 06:26:48;;;;;;;0.03;0.03;;;9.20;99.90;;;;;;5045921;28;20086;-74
2023/11/06 06:29:14;;;;;;;0.05;0.05;;;9.20;99.90;;;;;;5048868;28;20068;-74
2023/11/06 06:31:40;;;;;;;0.10;0.10;;;9.20;99.90;;;;;;5047673;28;20036;-73
2023/11/06 06:34:06;;;;;;;0.10;0.10;;;9.20;99.90;;;;;;5049100;28;20025;-75
2023/11/06 06:36:32;;;;;;;0.10;0.10;;;9.30;99.90;;;;;;5049062;28;20112;-74
2023/11/06 06:38:57;;;;;;;0.10;0.10;;;9.30;99.90;;;;;;5047088;28;20105;-74
2023/11/06 06:41:23;;;;;;;0.10;0.10;;;9.30;99.90;;;;;;5047659;28;20080;-73
2023/11/06 06:43:49;;;;;;;0.10;0.10;;;9.20;99.90;;;;;;5046136;28;20032;-75
2023/11/06 06:46:15;;;;;;;0.20;0.20;;;9.10;99.90;;;;;;5046893;28;20025;-74
2023/11/06 06:48:41;;;;;;;0.10;0.10;;;9.10;99.90;;;;;;5048525;28;20866;-72
2023/11/06 06:51:07;;;;;;;0.10;0.10;;;9.10;99.90;;;;;;5051040;28;20048;-73
2023/11/06 06:53:34;;;;;;;0.75;0.75;;;9.20;99.90;;;;;;5050539;28;20036;-74
2023/11/06 06:56:00;;;;;;;0.10;0.10;;;9.20;99.90;;;;;;5051742;28;20395;-74
2023/11/06 06:58:26;;;;;;;0.10;0.10;;;9.20;99.90;;;;;;5048672;28;20033;-73
2023/11/06 07:00:52;;;;;;;0.22;0.22;;;9.10;99.90;;;;;;5051393;28;20035;-73
2023/11/06 07:03:18;;;;;;;0.00;0.00;;;9.20;99.90;;;;;;5051598;28;20029;-73
2023/11/06 07:05:44;;;;;;;0.10;0.10;;;9.20;99.90;;;;;;5046682;28;20100;-73
2023/11/06 07:08:10;;;;;;;0.10;0.10;;;9.30;99.90;;;;;;5049376;28;20048;-73
2023/11/06 07:10:35;;;;;;;0.00;0.00;;;9.20;99.90;;;;;;5049991;28;20029;-73
2023/11/06 07:13:03;;;;;;;0.30;0.30;;;9.30;99.90;;;;;;5049472;28;20025;-73
2023/11/06 07:15:29;;;;;;;0.45;0.45;;;9.30;99.90;;;;;;5051016;28;20526;-74
2023/11/06 07:17:59;;;;;;;0.10;0.10;;;9.10;99.90;;;;;;5047875;28;20021;-73
2023/11/06 07:20:24;;;;;;;0.10;0.10;;;9.20;99.90;;;;;;5041567;28;20032;-73
2023/11/06 07:22:50;;;;;;;0.28;0.28;;;9.20;99.90;;;;;;5051312;28;20025;-73
2023/11/06 07:25:16;;;;;;;0.10;0.10;;;9.20;99.90;;;;;;5050154;28;20032;-73
2023/11/06 07:27:43;;;;;;;0.10;0.10;;;9.30;99.90;;;;;;5050264;28;20074;-74
2023/11/06 07:30:11;;;;;;;1.45;1.35;;;9.30;99.90;;;;;;5051612;28;20068;-73
2023/11/06 07:32:36;;;;;;;0.10;0.10;;;9.20;99.90;;;;;;5051080;28;20039;-73
2023/11/06 07:35:02;;;;;;;0.10;0.10;;;9.20;99.90;;;;;;5051979;28;20017;-74
2023/11/06 07:37:29;;;;;;;0.00;0.00;;;9.10;99.90;;;;;;5050469;28;20120;-74
2023/11/06 07:39:55;;;;;;;;;;;9.10;99.90;;;;;;5050077;28;20033;-74
2023/11/06 07:42:21;;;;;;;0.10;0.10;;;9.30;99.90;;;;;;5049905;28;19986;-73
2023/11/06 07:44:47;;;;;;;0.00;0.00;;;9.50;99.90;;;;;;5049992;28;20071;-73
2023/11/06 07:47:13;;;;;;;0.10;0.10;;;9.40;99.90;;;;;;5051160;28;20052;-73
2023/11/06 07:49:39;;;;;;;0.10;0.10;;;9.60;99.90;;;;;;5050348;28;20026;-74
2023/11/06 07:52:09;;;;;;;0.10;0.10;;;9.60;99.90;;;;;;5052371;28;20037;-73
2023/11/06 07:54:41;;;;;;;0.00;0.00;;;9.50;99.90;;;;;;5050942;28;20029;-73
2023/11/06 07:57:09;;;;;;;0.10;0.10;;;9.50;99.90;;;;;;5051683;28;20857;-74
2023/11/06 07:59:38;;;;;;;0.10;0.10;;;9.60;99.90;;;;;;5048930;28;20106;-73
2023/11/06 08:02:07;;;;;;;0.10;0.10;;;9.70;99.90;;;;;;5050297;28;20529;-73
2023/11/06 08:04:32;;;;;;;0.10;0.10;;;9.80;99.90;;;;;;5057685;28;20055;-74
2023/11/06 08:06:58;;;;;;;0.10;0.10;;;10.00;99.90;;;;;;5049869;28;20064;-73
2023/11/06 08:09:24;;;;;;;0.10;0.10;;;10.00;99.90;;;;;;5063769;28;20025;-73
2023/11/06 08:11:49;;;;;;;0.10;0.10;;;9.90;99.90;;;;;;5059297;28;20037;-74
2023/11/06 08:14:15;;;;;;;0.00;0.00;;;9.70;99.90;;;;;;5065459;28;20196;-73
2023/11/06 08:16:40;;;;;;;0.10;0.10;;;9.70;99.90;;;;;;5058346;28;20441;-73
2023/11/06 08:19:06;;;;;;;0.10;0.10;;;9.80;99.90;;;;;;5056015;28;20090;-73
2023/11/06 08:21:32;;;;;;;0.10;0.10;;;9.80;99.90;;;;;;5059035;28;20037;-73
2023/11/06 08:23:57;;;;;;;0.10;0.10;;;9.80;99.90;;;;;;5063773;28;20035;-74
2023/11/06 08:26:23;;;;;;;0.00;0.00;;;9.70;99.90;;;;;;5059405;28;20041;-73
2023/11/06 08:28:48;;;;;;;0.10;0.10;;;9.70;99.90;;;;;;5062178;28;20029;-74
2023/11/06 08:31:16;;;;;;;0.00;0.00;;;9.70;99.90;;;;;;5061065;28;20067;-73
2023/11/06 08:33:42;;;;;;;0.00;0.00;;;9.90;99.90;;;;;;5060983;28;20024;-73
2023/11/06 08:36:08;;;;;;;0.10;0.10;;;9.90;99.90;;;;;;5060085;28;20017;-73
2023/11/06 08:38:33;;;;;;;0.10;0.10;;;10.10;99.90;;;;;;5060320;28;20025;-73
2023/11/06 08:40:59;;;;;;;0.00;0.00;;;10.30;99.90;;;;;;5059476;28;20476;-73
2023/11/06 08:43:25;;;;;;;0.10;0.10;;;10.30;99.90;;;;;;5059004;28;20028;-73
2023/11/06 08:45:51;;;;;;;0.10;0.10;;;10.10;99.90;;;;;;5056304;28;20020;-74
2023/11/06 08:48:17;;;;;;;0.00;0.00;;;10.00;99.90;;;;;;5055958;28;20264;-73
2023/11/06 08:50:42;;;;;;;0.10;0.10;;;10.60;99.90;;;;;;5056520;28;20029;-74
2023/11/06 08:53:08;;;;;;;0.03;0.03;;;11.60;99.90;;;;;;5053515;28;20392;-74
2023/11/06 08:55:34;;;;;;;0.10;0.10;;;12.50;99.90;;;;;;5054087;28;20449;-73
2023/11/06 08:58:00;;;;;;;0.00;0.00;;;12.40;99.90;;;;;;5051108;28;20039;-74
2023/11/06 09:00:29;;;;;;;0.10;0.10;;;11.90;99.90;;;;;;5046613;28;20036;-73
2023/11/06 09:02:55;;;;;;;0.10;0.10;;;11.40;99.90;;;;;;5048088;28;20697;-74
2023/11/06 09:05:21;;;;;;;0.03;0.03;;;11.40;99.90;;;;;;5048676;28;20108;-74
2023/11/06 09:07:47;;;;;;;0.10;0.10;;;11.10;99.90;;;;;;5058771;28;20016;-73
2023/11/06 09:10:14;;;;;;;0.10;0.10;;;11.00;99.90;;;;;;5060408;28;20043;-74
2023/11/06 09:12:40;;;;;;;0.00;0.00;;;11.00;99.90;;;;;;5064510;28;20028;-73
2023/11/06 09:15:06;;;;;;;0.00;0.00;;;11.00;99.90;;;;;;5059845;28;20021;-73
2023/11/06 09:17:32;;;;;;;0.10;0.10;;;11.30;99.90;;;;;;5056305;28;20021;-74
2023/11/06 09:19:57;;;;;;;0.10;0.10;;;10.80;99.90;;;;;;5057924;28;20037;-73
2023/11/06 09:22:23;;;;;;;0.10;0.10;;;10.60;99.90;;;;;;5064456;28;20112;-74
2023/11/06 09:24:49;;;;;;;0.10;0.10;;;10.70;99.90;;;;;;5060430;28;20067;-74
2023/11/06 09:27:14;;;;;;;0.00;0.00;;;10.80;99.90;;;;;;5063383;28;20032;-73
2023/11/06 09:29:40;;;;;;;0.08;0.08;;;11.50;99.90;;;;;;5060370;28;20025;-73
2023/11/06 09:32:06;;;;;;;0.10;0.10;;;12.20;99.90;;;;;;5061938;28;20060;-73
2023/11/06 09:34:32;;;;;;;0.03;0.03;;;12.30;99.90;;;;;;5058974;28;20039;-74
2023/11/06 09:36:57;;;;;;;0.00;0.00;;;11.90;99.90;;;;;;5060834;28;20025;-73
2023/11/06 09:39:23;;;;;;;0.00;0.00;;;12.00;99.90;;;;;;5059533;28;20017;-74
2023/11/06 09:41:50;;;;;;;0.10;0.10;;;11.90;99.90;;;;;;5057275;28;20053;-74
2023/11/06 09:44:18;;;;;;;0.00;0.00;;;11.90;99.90;;;;;;5058540;28;20033;-74
2023/11/06 09:46:45;;;;;;;0.10;0.10;;;11.80;99.90;;;;;;5056846;28;20585;-74
2023/11/06 09:49:16;;;;;;;0.08;0.08;;;11.90;99.90;;;;;;5056914;28;20032;-74
2023/11/06 09:51:50;;;;;;;0.10;0.10;;;11.80;99.90;;;;;;5054834;28;20039;-74
2023/11/06 09:54:17;;;;;;;0.00;0.00;;;11.50;99.90;;;;;;5049211;28;20031;-73
2023/11/06 09:56:45;;;;;;;0.10;0.10;;;11.30;99.90;;;;;;5054663;28;20032;-74
2023/11/06 09:59:11;;;;;;;0.10;0.10;;;11.50;99.90;;;;;;5049615;28;20025;-74
2023/11/06 10:01:37;;;;;;;0.00;0.00;;;12.10;99.90;;;;;;5045458;28;20460;-74
2023/11/06 10:04:04;;;;;;;0.08;0.08;;;12.30;99.90;;;;;;5048168;28;20030;-74
2023/11/06 10:06:34;;;;;;;0.10;0.10;;;12.60;99.90;;;;;;5047336;28;20113;-73
2023/11/06 10:09:02;;;;;;;0.10;0.10;;;12.30;99.90;;;;;;5051786;28;20035;-73
2023/11/06 10:11:28;;;;;;;0.10;0.10;;;12.50;99.90;;;;;;5057859;28;20170;-73
2023/11/06 10:13:56;;;;;;;0.00;0.00;;;13.20;99.90;;;;;;5058247;28;20124;-74
2023/11/06 10:16:23;;;;;;;0.10;0.10;;;13.40;99.90;;;;;;5058108;28;20017;-74
2023/11/06 10:19:12;;;;;;;0.05;0.05;;;13.60;99.90;;;;;;5050165;28;20135;-74
2023/11/06 10:21:41;;;;;;;0.10;0.10;;;13.20;99.90;;;;;;5056832;28;20100;-73
2023/11/06 10:24:07;;;;;;;0.00;0.00;;;13.30;99.90;;;;;;5061590;28;20039;-73
2023/11/06 10:26:33;;;;;;;0.00;0.00;;;12.60;99.90;;;;;;5056092;28;20124;-74
2023/11/06 10:29:13;;;;;;;0.00;0.00;;;12.60;99.90;;;;;;5061688;28;20115;-73
2023/11/06 10:31:43;;;;;;;0.10;0.10;;;12.70;99.90;;;;;;5054861;28;20025;-73
2023/11/06 10:34:29;;;;;;;0.10;0.10;;;12.60;99.90;;;;;;5055670;28;20135;-74
2023/11/06 10:37:10;;;;;;;0.00;0.00;;;12.20;99.90;;;;;;5053955;28;20017;-74
2023/11/06 10:39:59;;;;;;;0.00;0.00;;;12.10;99.90;;;;;;5048592;28;20029;-74
2023/11/06 10:42:25;;;;;;;0.00;0.00;;;11.90;99.90;;;;;;5041475;28;20068;-74
2023/11/06 10:44:55;;;;;;;;;;;12.70;99.90;;;;;;5042829;28;20099;-74
2023/11/06 10:47:48;;;;;;;0.00;0.00;;;12.70;99.90;;;;;;5047780;28;19952;-74
2023/11/06 10:50:18;;;;;;;0.00;0.00;;;13.40;99.90;;;;;;5040361;28;20044;-74
2023/11/06 10:52:50;;;;;;;0.00;0.00;;;12.90;99.90;;;;;;5047574;28;20388;-74
2023/11/06 10:55:17;;;;;;;0.00;0.00;;;12.50;99.90;;;;;;5052594;28;20032;-74
2023/11/06 10:57:44;;;;;;;0.10;0.10;;;13.00;99.90;;;;;;5047510;28;20036;-74
2023/11/06 11:00:18;;;;;;;0.00;0.00;;;13.30;99.90;;;;;;5045327;28;20029;-74
2023/11/06 11:02:52;;;;;;;0.00;0.00;;;12.80;99.90;;;;;;5047000;28;20025;-74
2023/11/06 11:05:23;;;;;;;0.10;0.10;;;12.30;99.90;;;;;;5058419;28;20074;-73
2023/11/06 11:07:54;;;;;;;0.00;0.00;;;11.80;99.90;;;;;;5047259;28;20079;-74
2023/11/06 11:10:26;;;;;;;0.00;0.00;;;11.60;99.90;;;;;;5042072;28;20773;-73
2023/11/06 11:12:54;;;;;;;0.00;0.00;;;11.50;99.90;;;;;;5045736;28;20590;-74
2023/11/06 11:15:26;;;;;;;0.10;0.10;;;11.40;99.90;;;;;;5045720;28;20036;-74
2023/11/06 11:17:57;;;;;;;0.10;0.10;;;11.80;99.90;;;;;;5046264;28;20021;-74
2023/11/06 11:20:23;;;;;;;0.10;0.10;;;12.10;99.90;;;;;;5056267;28;20021;-74
2023/11/06 11:23:08;;;;;;;0.00;0.00;;;12.00;99.90;;;;;;5055452;28;20052;-73
2023/11/06 11:25:57;;;;;;;0.10;0.10;;;11.50;99.90;;;;;;5045213;28;20044;-74
2023/11/06 11:28:24;;;;;;;0.10;0.10;;;11.50;99.90;;;;;;5047074;28;20697;-74
2023/11/06 11:30:50;;;;;;;0.10;0.10;;;11.50;99.90;;;;;;5046742;28;20032;-74
2023/11/06 11:33:54;;;;;;;0.00;0.00;;;11.60;99.90;;;;;;5054824;28;20029;-74
2023/11/06 11:36:33;;;;;;;0.10;0.10;;;11.90;99.90;;;;;;5019778;28;20044;-74
2023/11/06 11:39:13;;;;;;;0.10;0.10;;;11.90;99.90;;;;;;5059266;28;20032;-74
2023/11/06 11:41:59;;;;;;;0.00;0.00;;;12.10;99.90;;;;;;5051438;28;20057;-73
2023/11/06 11:44:25;;;;;;;0.83;0.83;;;12.40;99.90;;;;;;5051503;28;20120;-74
2023/11/06 11:46:50;;;;;;;0.10;0.10;;;11.60;99.90;;;;;;5057433;28;20036;-73
2023/11/06 11:49:43;;;;;;;0.00;0.00;;;11.10;99.90;;;;;;5049530;28;20033;-73
2023/11/06 11:52:12;;;;;;;0.70;0.70;;;11.10;99.90;;;;;;5048472;28;20048;-74
2023/11/06 11:54:38;;;;;;;0.10;0.10;;;11.20;99.90;;;;;;5051760;28;20024;-74
2023/11/06 11:57:05;;;;;;;0.10;0.10;;;11.10;99.90;;;;;;5062102;28;20473;-74
2023/11/06 11:59:50;;;;;;;0.00;0.00;;;10.90;99.90;;;;;;5049410;28;20359;-74
2023/11/06 12:02:31;;;;;;;0.10;0.10;;;10.90;99.90;;;;;;5047007;28;20056;-74
2023/11/06 12:04:59;;;;;;;0.10;0.10;;;10.80;99.90;;;;;;5050485;28;20110;-74
2023/11/06 12:07:28;;;;;;;0.00;0.00;;;10.70;99.90;;;;;;5047747;28;20095;-73
2023/11/06 12:09:55;;;;;;;0.00;0.00;;;10.90;99.90;;;;;;5050608;28;20029;-74
2023/11/06 12:12:28;;;;;;;0.10;0.10;;;11.20;99.90;;;;;;5062350;28;20028;-73
2023/11/06 12:15:00;;;;;;;0.05;0.05;;;11.50;99.90;;;;;;5051456;28;20055;-73
2023/11/06 12:17:26;;;;;;;0.10;0.10;;;11.90;99.90;;;;;;5048933;28;20495;-74
2023/11/06 12:19:52;;;;;;;0.00;0.00;;;12.60;99.90;;;;;;5056353;28;20047;-74
2023/11/06 12:22:18;;;;;;;0.05;0.05;;;13.00;99.90;;;;;;5061015;28;20028;-73
2023/11/06 12:24:53;;;;;;;0.10;0.10;;;12.90;99.90;;;;;;5053007;28;20496;-73
2023/11/06 12:27:20;;;;;;;0.00;0.00;;;12.60;99.90;;;;;;5057092;28;20108;-74
2023/11/06 12:29:46;;;;;;;0.10;0.10;;;12.50;99.90;;;;;;5050408;28;20028;-74
2023/11/06 12:32:23;;;;;;;0.10;0.10;;;12.40;99.90;;;;;;5055744;28;20043;-74
2023/11/06 12:35:11;;;;;;;0.00;0.00;;;12.20;99.90;;;;;;5045842;28;20051;-73
2023/11/06 12:37:50;;;;;;;0.10;0.10;;;11.60;99.90;;;;;;5044628;28;20029;-74
2023/11/06 12:40:17;;;;;;;0.00;0.00;;;11.40;99.90;;;;;;5060925;28;20106;-74
2023/11/06 12:42:45;;;;;;;0.10;0.10;;;11.50;99.90;;;;;;5058588;28;20053;-74
2023/11/06 12:45:47;;;;;;;0.00;0.00;;;11.70;99.90;;;;;;5050498;28;20047;-73
2023/11/06 12:48:19;;;;;;;0.10;0.10;;;11.40;99.90;;;;;;5046767;28;20087;-73
2023/11/06 12:51:05;;;;;;;0.10;0.10;;;11.30;99.90;;;;;;5049461;28;20677;-74
2023/11/06 12:53:32;;;;;;;0.10;0.10;;;11.40;99.90;;;;;;5049608;28;20060;-73
2023/11/06 12:55:59;;;;;;;0.00;0.00;;;11.50;99.90;;;;;;5049092;28;20307;-74
2023/11/06 12:58:25;;;;;;;0.00;0.00;;;11.60;99.90;;;;;;5048145;28;20035;-74